sensor_id;sensor_type;location;lat;lon;timestamp;pressure;altitude;pressure_sealevel;temperature;humidity
70833;BME280;58452;59.418;17.962;2023-02-13T00:00:00;102134.44;;;2.18;86.05
70833;BME280;58452;59.418;17.962;2023-02-13T00:02:26;102136.41;;;2.10;86.06
70833;BME280;58452;59.418;17.962;2023-02-13T00:04:51;102133.88;;;2.10;86.32
70833;BME280;58452;59.418;17.962;2023-02-13T00:07:16;102129.69;;;2.09;86.13
70833;BME280;58452;59.418;17.962;2023-02-13T00:09:42;102127.91;;;2.11;86.42
70833;BME280;58452;59.418;17.962;2023-02-13T00:12:08;102122.03;;;2.09;85.70
70833;BME280;58452;59.418;17.962;2023-02-13T00:14:35;102136.22;;;2.16;86.34
70833;BME280;58452;59.418;17.962;2023-02-13T00:17:01;102124.97;;;2.21;85.65
70833;BME280;58452;59.418;17.962;2023-02-13T00:19:26;102126.91;;;2.15;85.92
70833;BME280;58452;59.418;17.962;2023-02-13T00:21:52;102118.41;;;2.16;85.93
70833;BME280;58452;59.418;17.962;2023-02-13T00:24:17;102123.03;;;2.05;86.25
70833;BME280;58452;59.418;17.962;2023-02-13T00:26:43;102122.09;;;2.07;86.23
70833;BME280;58452;59.418;17.962;2023-02-13T00:29:08;102117.09;;;2.04;86.67
70833;BME280;58452;59.418;17.962;2023-02-13T00:31:33;102118.78;;;2.05;86.75
70833;BME280;58452;59.418;17.962;2023-02-13T00:33:59;102121.47;;;2.01;86.51
70833;BME280;58452;59.418;17.962;2023-02-13T00:36:24;102119.69;;;2.03;87.25
70833;BME280;58452;59.418;17.962;2023-02-13T00:38:50;102114.50;;;2.06;86.65
70833;BME280;58452;59.418;17.962;2023-02-13T00:41:16;102108.38;;;2.11;86.59
70833;BME280;58452;59.418;17.962;2023-02-13T00:43:43;102104.94;;;2.12;86.57
70833;BME280;58452;59.418;17.962;2023-02-13T00:46:08;102108.09;;;2.19;86.63
70833;BME280;58452;59.418;17.962;2023-02-13T00:48:34;102109.09;;;2.15;86.24
70833;BME280;58452;59.418;17.962;2023-02-13T00:51:00;102095.59;;;2.13;86.34
70833;BME280;58452;59.418;17.962;2023-02-13T00:53:26;102094.53;;;2.18;86.32
70833;BME280;58452;59.418;17.962;2023-02-13T00:55:52;102095.28;;;2.20;85.47
70833;BME280;58452;59.418;17.962;2023-02-13T00:58:18;102097.47;;;2.31;85.50
70833;BME280;58452;59.418;17.962;2023-02-13T01:00:45;102085.19;;;2.42;84.65
70833;BME280;58452;59.418;17.962;2023-02-13T01:03:17;102089.25;;;2.46;84.10
70833;BME280;58452;59.418;17.962;2023-02-13T01:05:43;102087.41;;;2.50;83.61
70833;BME280;58452;59.418;17.962;2023-02-13T01:08:10;102087.78;;;2.40;83.37
70833;BME280;58452;59.418;17.962;2023-02-13T01:10:40;102088.09;;;2.55;83.38
70833;BME280;58452;59.418;17.962;2023-02-13T01:13:06;102093.91;;;2.58;83.25
70833;BME280;58452;59.418;17.962;2023-02-13T01:15:32;102089.22;;;2.69;82.64
70833;BME280;58452;59.418;17.962;2023-02-13T01:17:58;102081.81;;;2.63;81.66
70833;BME280;58452;59.418;17.962;2023-02-13T01:20:25;102081.53;;;2.71;81.79
70833;BME280;58452;59.418;17.962;2023-02-13T01:22:51;102076.94;;;2.57;81.25
70833;BME280;58452;59.418;17.962;2023-02-13T01:25:17;102081.94;;;2.60;81.79
70833;BME280;58452;59.418;17.962;2023-02-13T01:27:42;102073.22;;;2.66;81.23
70833;BME280;58452;59.418;17.962;2023-02-13T01:30:10;102071.03;;;2.57;81.04
70833;BME280;58452;59.418;17.962;2023-02-13T01:32:42;102067.78;;;2.30;81.45
70833;BME280;58452;59.418;17.962;2023-02-13T01:35:08;102063.88;;;2.43;81.56
70833;BME280;58452;59.418;17.962;2023-02-13T01:37:34;102076.00;;;2.38;82.03
70833;BME280;58452;59.418;17.962;2023-02-13T01:39:59;102068.22;;;2.41;81.50
70833;BME280;58452;59.418;17.962;2023-02-13T01:42:27;102063.97;;;2.41;81.68
70833;BME280;58452;59.418;17.962;2023-02-13T01:45:02;102063.69;;;2.49;81.16
70833;BME280;58452;59.418;17.962;2023-02-13T01:47:38;102072.31;;;2.45;80.96
70833;BME280;58452;59.418;17.962;2023-02-13T01:55:27;102061.88;;;2.29;82.56
70833;BME280;58452;59.418;17.962;2023-02-13T01:58:00;102079.81;;;1.78;83.62
70833;BME280;58452;59.418;17.962;2023-02-13T02:00:27;102084.22;;;1.73;85.23
70833;BME280;58452;59.418;17.962;2023-02-13T02:02:58;102078.16;;;1.77;85.30
70833;BME280;58452;59.418;17.962;2023-02-13T02:05:26;102079.81;;;1.78;85.36
70833;BME280;58452;59.418;17.962;2023-02-13T02:07:54;102076.56;;;1.75;85.58
70833;BME280;58452;59.418;17.962;2023-02-13T02:10:21;102078.00;;;1.82;85.88
70833;BME280;58452;59.418;17.962;2023-02-13T02:13:06;102072.06;;;1.81;86.18
70833;BME280;58452;59.418;17.962;2023-02-13T02:15:32;102070.13;;;1.88;85.36
70833;BME280;58452;59.418;17.962;2023-02-13T02:17:58;102066.94;;;1.83;85.26
70833;BME280;58452;59.418;17.962;2023-02-13T02:23:22;102062.25;;;1.95;85.49
70833;BME280;58452;59.418;17.962;2023-02-13T02:50:25;102078.97;;;2.03;85.47
70833;BME280;58452;59.418;17.962;2023-02-13T02:55:49;102082.63;;;1.71;87.04
70833;BME280;58452;59.418;17.962;2023-02-13T02:58:29;102083.25;;;1.77;87.47
70833;BME280;58452;59.418;17.962;2023-02-13T03:01:17;102074.03;;;1.73;87.49
70833;BME280;58452;59.418;17.962;2023-02-13T03:04:02;102073.41;;;1.68;87.43
70833;BME280;58452;59.418;17.962;2023-02-13T03:07:07;102068.31;;;1.68;87.87
70833;BME280;58452;59.418;17.962;2023-02-13T03:09:41;102074.22;;;1.69;87.53
70833;BME280;58452;59.418;17.962;2023-02-13T03:12:34;102068.97;;;1.73;87.66
70833;BME280;58452;59.418;17.962;2023-02-13T03:15:22;102054.41;;;1.77;87.26
70833;BME280;58452;59.418;17.962;2023-02-13T03:17:50;102056.13;;;1.76;87.80
70833;BME280;58452;59.418;17.962;2023-02-13T03:20:54;102047.63;;;1.77;87.61
70833;BME280;58452;59.418;17.962;2023-02-13T03:31:53;102050.72;;;1.85;87.32
70833;BME280;58452;59.418;17.962;2023-02-13T03:34:30;102062.56;;;1.86;87.17
70833;BME280;58452;59.418;17.962;2023-02-13T03:37:18;102066.00;;;1.85;87.28
70833;BME280;58452;59.418;17.962;2023-02-13T03:40:15;102062.47;;;1.89;86.71
70833;BME280;58452;59.418;17.962;2023-02-13T03:42:53;102060.78;;;1.88;87.05
70833;BME280;58452;59.418;17.962;2023-02-13T03:45:25;102054.72;;;1.92;86.86
70833;BME280;58452;59.418;17.962;2023-02-13T03:48:13;102046.41;;;1.87;87.24
70833;BME280;58452;59.418;17.962;2023-02-13T03:51:00;102046.97;;;1.95;86.58
70833;BME280;58452;59.418;17.962;2023-02-13T03:53:29;102043.66;;;1.93;87.00
70833;BME280;58452;59.418;17.962;2023-02-13T03:55:57;102038.34;;;2.00;86.67
70833;BME280;58452;59.418;17.962;2023-02-13T03:58:46;102051.13;;;1.98;86.90
70833;BME280;58452;59.418;17.962;2023-02-13T04:01:33;102037.34;;;2.04;86.43
70833;BME280;58452;59.418;17.962;2023-02-13T04:06:36;102050.63;;;1.88;86.34
70833;BME280;58452;59.418;17.962;2023-02-13T04:09:03;102048.78;;;1.92;86.31
70833;BME280;58452;59.418;17.962;2023-02-13T04:11:45;102044.38;;;1.97;85.95
70833;BME280;58452;59.418;17.962;2023-02-13T04:14:19;102048.06;;;1.88;86.33
70833;BME280;58452;59.418;17.962;2023-02-13T04:16:49;102044.53;;;1.92;86.39
70833;BME280;58452;59.418;17.962;2023-02-13T04:19:18;102036.03;;;1.93;86.23
70833;BME280;58452;59.418;17.962;2023-02-13T04:21:48;102036.13;;;1.90;86.53
70833;BME280;58452;59.418;17.962;2023-02-13T04:24:19;102030.47;;;1.82;86.60
70833;BME280;58452;59.418;17.962;2023-02-13T04:26:45;102032.16;;;1.83;86.90
70833;BME280;58452;59.418;17.962;2023-02-13T04:29:10;102025.88;;;1.92;86.75
70833;BME280;58452;59.418;17.962;2023-02-13T04:31:36;102031.75;;;1.94;86.87
70833;BME280;58452;59.418;17.962;2023-02-13T04:34:02;102035.09;;;1.94;86.45
70833;BME280;58452;59.418;17.962;2023-02-13T04:36:27;102037.00;;;1.89;86.76
70833;BME280;58452;59.418;17.962;2023-02-13T04:38:53;102030.97;;;1.92;86.40
70833;BME280;58452;59.418;17.962;2023-02-13T04:41:18;102036.78;;;1.95;86.29
70833;BME280;58452;59.418;17.962;2023-02-13T04:43:44;102048.03;;;1.90;86.81
70833;BME280;58452;59.418;17.962;2023-02-13T04:46:09;102048.75;;;1.93;86.27
70833;BME280;58452;59.418;17.962;2023-02-13T04:48:35;102042.00;;;1.92;86.56
70833;BME280;58452;59.418;17.962;2023-02-13T04:51:00;102053.94;;;1.90;86.85
70833;BME280;58452;59.418;17.962;2023-02-13T04:53:26;102058.03;;;1.94;86.54
70833;BME280;58452;59.418;17.962;2023-02-13T04:55:52;102045.28;;;1.94;86.44
70833;BME280;58452;59.418;17.962;2023-02-13T04:58:18;102047.78;;;1.96;86.21
70833;BME280;58452;59.418;17.962;2023-02-13T05:00:43;102047.91;;;1.93;86.44
70833;BME280;58452;59.418;17.962;2023-02-13T05:03:11;102043.44;;;2.00;86.44
70833;BME280;58452;59.418;17.962;2023-02-13T05:05:37;102033.47;;;1.93;86.15
70833;BME280;58452;59.418;17.962;2023-02-13T05:08:03;102041.88;;;1.95;86.31
70833;BME280;58452;59.418;17.962;2023-02-13T05:10:29;102055.59;;;1.91;86.80
70833;BME280;58452;59.418;17.962;2023-02-13T05:12:54;102056.31;;;1.95;86.89
70833;BME280;58452;59.418;17.962;2023-02-13T05:15:20;102061.59;;;1.90;86.25
70833;BME280;58452;59.418;17.962;2023-02-13T05:17:48;102059.13;;;1.87;86.62
70833;BME280;58452;59.418;17.962;2023-02-13T05:20:14;102060.28;;;1.79;87.05
70833;BME280;58452;59.418;17.962;2023-02-13T05:22:51;102059.50;;;1.77;87.09
70833;BME280;58452;59.418;17.962;2023-02-13T05:25:38;102044.41;;;1.72;87.68
70833;BME280;58452;59.418;17.962;2023-02-13T05:28:04;102044.19;;;1.78;87.47
70833;BME280;58452;59.418;17.962;2023-02-13T05:30:49;102057.38;;;1.89;87.15
70833;BME280;58452;59.418;17.962;2023-02-13T05:33:15;102064.44;;;1.81;87.12
70833;BME280;58452;59.418;17.962;2023-02-13T05:35:40;102066.09;;;1.82;87.16
70833;BME280;58452;59.418;17.962;2023-02-13T05:38:06;102078.03;;;1.80;87.30
70833;BME280;58452;59.418;17.962;2023-02-13T05:40:31;102079.59;;;1.84;86.88
70833;BME280;58452;59.418;17.962;2023-02-13T05:42:56;102071.25;;;1.81;87.18
70833;BME280;58452;59.418;17.962;2023-02-13T05:45:22;102068.66;;;1.82;87.30
70833;BME280;58452;59.418;17.962;2023-02-13T05:47:47;102066.22;;;1.79;86.98
70833;BME280;58452;59.418;17.962;2023-02-13T05:50:13;102073.13;;;1.76;86.92
70833;BME280;58452;59.418;17.962;2023-02-13T05:52:39;102085.03;;;1.75;87.38
70833;BME280;58452;59.418;17.962;2023-02-13T05:55:04;102097.69;;;1.77;87.60
70833;BME280;58452;59.418;17.962;2023-02-13T05:57:30;102101.75;;;1.82;87.22
70833;BME280;58452;59.418;17.962;2023-02-13T05:59:55;102105.16;;;1.81;87.03
70833;BME280;58452;59.418;17.962;2023-02-13T06:02:21;102100.91;;;1.82;86.77
70833;BME280;58452;59.418;17.962;2023-02-13T06:04:46;102103.59;;;1.77;86.70
70833;BME280;58452;59.418;17.962;2023-02-13T06:07:11;102101.06;;;1.77;87.29
70833;BME280;58452;59.418;17.962;2023-02-13T06:09:37;102099.31;;;1.79;87.14
70833;BME280;58452;59.418;17.962;2023-02-13T06:12:05;102107.03;;;1.76;87.22
70833;BME280;58452;59.418;17.962;2023-02-13T06:14:30;102116.22;;;1.80;87.10
70833;BME280;58452;59.418;17.962;2023-02-13T06:16:56;102120.53;;;1.78;87.41
70833;BME280;58452;59.418;17.962;2023-02-13T06:19:21;102135.69;;;1.81;87.17
70833;BME280;58452;59.418;17.962;2023-02-13T06:21:47;102145.84;;;1.83;86.58
70833;BME280;58452;59.418;17.962;2023-02-13T06:24:13;102150.97;;;1.81;87.22
70833;BME280;58452;59.418;17.962;2023-02-13T06:26:38;102151.09;;;1.78;86.92
70833;BME280;58452;59.418;17.962;2023-02-13T06:29:04;102136.78;;;1.74;87.72
70833;BME280;58452;59.418;17.962;2023-02-13T06:31:29;102137.66;;;1.73;86.82
70833;BME280;58452;59.418;17.962;2023-02-13T06:33:54;102135.31;;;1.69;87.29
70833;BME280;58452;59.418;17.962;2023-02-13T06:36:20;102122.56;;;1.69;87.42
70833;BME280;58452;59.418;17.962;2023-02-13T06:38:45;102121.81;;;1.65;87.47
70833;BME280;58452;59.418;17.962;2023-02-13T06:41:11;102127.56;;;1.72;87.52
70833;BME280;58452;59.418;17.962;2023-02-13T06:43:36;102125.19;;;1.66;87.51
70833;BME280;58452;59.418;17.962;2023-02-13T06:46:05;102127.66;;;1.69;87.39
70833;BME280;58452;59.418;17.962;2023-02-13T06:48:31;102129.41;;;1.67;87.23
70833;BME280;58452;59.418;17.962;2023-02-13T06:50:57;102120.28;;;1.61;87.92
70833;BME280;58452;59.418;17.962;2023-02-13T06:53:22;102116.84;;;1.62;88.08
70833;BME280;58452;59.418;17.962;2023-02-13T06:55:51;102124.34;;;1.65;87.62
70833;BME280;58452;59.418;17.962;2023-02-13T06:58:18;102123.69;;;1.60;88.07
70833;BME280;58452;59.418;17.962;2023-02-13T07:00:43;102129.66;;;1.59;88.03
70833;BME280;58452;59.418;17.962;2023-02-13T07:03:09;102133.78;;;1.63;87.97
70833;BME280;58452;59.418;17.962;2023-02-13T07:05:35;102126.13;;;1.63;87.44
70833;BME280;58452;59.418;17.962;2023-02-13T07:08:03;102130.38;;;1.63;87.24
70833;BME280;58452;59.418;17.962;2023-02-13T07:10:28;102131.25;;;1.62;87.56
70833;BME280;58452;59.418;17.962;2023-02-13T07:12:54;102136.09;;;1.69;87.40
70833;BME280;58452;59.418;17.962;2023-02-13T07:15:19;102133.97;;;1.83;87.00
70833;BME280;58452;59.418;17.962;2023-02-13T07:17:45;102138.25;;;1.81;86.38
70833;BME280;58452;59.418;17.962;2023-02-13T07:20:13;102139.13;;;1.80;86.47
70833;BME280;58452;59.418;17.962;2023-02-13T07:22:38;102128.56;;;1.66;86.65
70833;BME280;58452;59.418;17.962;2023-02-13T07:25:04;102114.28;;;1.62;86.78
70833;BME280;58452;59.418;17.962;2023-02-13T07:27:29;102116.28;;;1.54;87.88
70833;BME280;58452;59.418;17.962;2023-02-13T07:29:55;102118.72;;;1.57;87.48
70833;BME280;58452;59.418;17.962;2023-02-13T07:32:22;102124.78;;;1.53;87.77
70833;BME280;58452;59.418;17.962;2023-02-13T07:34:48;102124.88;;;1.50;88.04
70833;BME280;58452;59.418;17.962;2023-02-13T07:37:13;102119.59;;;1.56;87.58
70833;BME280;58452;59.418;17.962;2023-02-13T07:39:40;102119.69;;;1.53;87.52
70833;BME280;58452;59.418;17.962;2023-02-13T07:42:05;102114.59;;;1.53;87.67
70833;BME280;58452;59.418;17.962;2023-02-13T07:44:31;102116.91;;;1.61;87.57
70833;BME280;58452;59.418;17.962;2023-02-13T07:46:57;102128.41;;;1.72;87.66
70833;BME280;58452;59.418;17.962;2023-02-13T07:49:22;102130.84;;;1.75;87.06
70833;BME280;58452;59.418;17.962;2023-02-13T07:51:48;102125.94;;;1.69;87.35
70833;BME280;58452;59.418;17.962;2023-02-13T07:54:13;102130.09;;;1.72;87.11
70833;BME280;58452;59.418;17.962;2023-02-13T07:56:39;102129.25;;;1.71;87.41
70833;BME280;58452;59.418;17.962;2023-02-13T07:59:04;102131.81;;;1.71;86.74
70833;BME280;58452;59.418;17.962;2023-02-13T08:01:29;102128.31;;;1.74;86.65
70833;BME280;58452;59.418;17.962;2023-02-13T08:03:55;102129.00;;;1.79;86.49
70833;BME280;58452;59.418;17.962;2023-02-13T08:06:20;102144.19;;;1.82;86.81
70833;BME280;58452;59.418;17.962;2023-02-13T08:08:46;102149.31;;;1.80;86.92
70833;BME280;58452;59.418;17.962;2023-02-13T08:11:25;102149.22;;;1.83;86.25
70833;BME280;58452;59.418;17.962;2023-02-13T08:14:10;102157.53;;;1.88;86.18
70833;BME280;58452;59.418;17.962;2023-02-13T08:16:36;102162.34;;;1.96;85.81
70833;BME280;58452;59.418;17.962;2023-02-13T08:19:01;102164.75;;;2.01;85.80
70833;BME280;58452;59.418;17.962;2023-02-13T08:21:27;102169.75;;;2.04;85.05
70833;BME280;58452;59.418;17.962;2023-02-13T08:23:52;102173.84;;;2.08;85.25
70833;BME280;58452;59.418;17.962;2023-02-13T08:26:17;102180.50;;;2.12;85.19
70833;BME280;58452;59.418;17.962;2023-02-13T08:28:43;102189.72;;;2.16;84.81
70833;BME280;58452;59.418;17.962;2023-02-13T08:31:12;102195.56;;;2.18;84.58
70833;BME280;58452;59.418;17.962;2023-02-13T08:33:37;102192.06;;;2.20;84.33
70833;BME280;58452;59.418;17.962;2023-02-13T08:36:05;102193.63;;;2.24;84.37
70833;BME280;58452;59.418;17.962;2023-02-13T08:38:32;102200.25;;;2.30;83.84
70833;BME280;58452;59.418;17.962;2023-02-13T08:40:57;102209.34;;;2.37;83.66
70833;BME280;58452;59.418;17.962;2023-02-13T08:43:23;102201.47;;;2.43;82.93
70833;BME280;58452;59.418;17.962;2023-02-13T08:45:49;102214.78;;;2.51;82.94
70833;BME280;58452;59.418;17.962;2023-02-13T08:48:14;102214.66;;;2.54;82.97
70833;BME280;58452;59.418;17.962;2023-02-13T08:50:40;102215.34;;;2.59;83.29
70833;BME280;58452;59.418;17.962;2023-02-13T08:53:05;102222.00;;;2.63;82.57
70833;BME280;58452;59.418;17.962;2023-02-13T08:55:31;102217.56;;;2.68;82.40
70833;BME280;58452;59.418;17.962;2023-02-13T08:58:00;102217.34;;;2.74;81.66
70833;BME280;58452;59.418;17.962;2023-02-13T09:00:26;102226.59;;;2.77;81.78
70833;BME280;58452;59.418;17.962;2023-02-13T09:02:52;102225.56;;;2.82;81.62
70833;BME280;58452;59.418;17.962;2023-02-13T09:05:17;102221.91;;;2.89;81.36
70833;BME280;58452;59.418;17.962;2023-02-13T09:07:43;102219.13;;;2.95;81.01
70833;BME280;58452;59.418;17.962;2023-02-13T09:10:08;102222.25;;;3.02;80.18
70833;BME280;58452;59.418;17.962;2023-02-13T09:12:34;102217.00;;;3.07;80.03
70833;BME280;58452;59.418;17.962;2023-02-13T09:14:59;102218.44;;;3.14;79.33
70833;BME280;58452;59.418;17.962;2023-02-13T09:17:25;102225.06;;;3.18;80.36
70833;BME280;58452;59.418;17.962;2023-02-13T09:19:50;102214.63;;;3.24;79.66
70833;BME280;58452;59.418;17.962;2023-02-13T09:22:16;102212.88;;;3.26;78.65
70833;BME280;58452;59.418;17.962;2023-02-13T09:24:41;102211.97;;;3.27;79.26
70833;BME280;58452;59.418;17.962;2023-02-13T09:27:07;102222.88;;;3.30;78.78
70833;BME280;58452;59.418;17.962;2023-02-13T09:29:33;102218.47;;;3.34;78.62
70833;BME280;58452;59.418;17.962;2023-02-13T09:31:59;102218.41;;;3.37;78.68
70833;BME280;58452;59.418;17.962;2023-02-13T09:34:24;102201.28;;;3.39;78.55
70833;BME280;58452;59.418;17.962;2023-02-13T09:36:51;102201.16;;;3.42;78.53
70833;BME280;58452;59.418;17.962;2023-02-13T09:39:17;102200.16;;;3.46;77.68
70833;BME280;58452;59.418;17.962;2023-02-13T09:41:43;102204.38;;;3.47;77.45
70833;BME280;58452;59.418;17.962;2023-02-13T09:44:18;102207.59;;;3.52;77.55
70833;BME280;58452;59.418;17.962;2023-02-13T09:49:38;102198.78;;;3.59;77.08
70833;BME280;58452;59.418;17.962;2023-02-13T09:52:07;102207.34;;;3.58;76.97
70833;BME280;58452;59.418;17.962;2023-02-13T09:54:33;102215.53;;;3.66;76.70
70833;BME280;58452;59.418;17.962;2023-02-13T09:57:02;102213.72;;;3.68;76.68
70833;BME280;58452;59.418;17.962;2023-02-13T09:59:34;102210.44;;;3.66;77.10
70833;BME280;58452;59.418;17.962;2023-02-13T10:05:16;102205.38;;;3.65;76.67
70833;BME280;58452;59.418;17.962;2023-02-13T10:07:57;102210.28;;;3.69;77.16
70833;BME280;58452;59.418;17.962;2023-02-13T10:10:41;102215.72;;;3.82;76.63
70833;BME280;58452;59.418;17.962;2023-02-13T10:16:11;102239.22;;;3.90;75.69
70833;BME280;58452;59.418;17.962;2023-02-13T10:21:20;102227.94;;;3.96;75.79
70833;BME280;58452;59.418;17.962;2023-02-13T10:24:09;102227.56;;;4.05;75.62
70833;BME280;58452;59.418;17.962;2023-02-13T10:26:38;102236.09;;;4.04;75.11
70833;BME280;58452;59.418;17.962;2023-02-13T10:29:37;102227.56;;;4.05;75.37
70833;BME280;58452;59.418;17.962;2023-02-13T10:37:47;102239.31;;;4.09;74.25
70833;BME280;58452;59.418;17.962;2023-02-13T10:40:17;102244.44;;;4.09;74.94
70833;BME280;58452;59.418;17.962;2023-02-13T10:42:46;102244.28;;;4.12;74.02
70833;BME280;58452;59.418;17.962;2023-02-13T10:53:43;102241.88;;;4.29;73.38
70833;BME280;58452;59.418;17.962;2023-02-13T10:59:16;102244.19;;;4.35;73.12
70833;BME280;58452;59.418;17.962;2023-02-13T11:01:54;102254.25;;;4.38;73.18
70833;BME280;58452;59.418;17.962;2023-02-13T11:04:20;102254.06;;;4.42;73.39
70833;BME280;58452;59.418;17.962;2023-02-13T11:06:55;102253.09;;;4.45;72.31
70833;BME280;58452;59.418;17.962;2023-02-13T11:09:22;102255.59;;;4.47;72.39
70833;BME280;58452;59.418;17.962;2023-02-13T11:11:48;102254.78;;;4.46;72.31
70833;BME280;58452;59.418;17.962;2023-02-13T11:14:18;102259.75;;;4.49;72.62
70833;BME280;58452;59.418;17.962;2023-02-13T11:17:03;102267.16;;;4.55;72.21
70833;BME280;58452;59.418;17.962;2023-02-13T11:19:48;102274.72;;;4.58;71.86
70833;BME280;58452;59.418;17.962;2023-02-13T11:22:34;102273.03;;;4.57;71.76
70833;BME280;58452;59.418;17.962;2023-02-13T11:25:24;102272.03;;;4.61;72.64
70833;BME280;58452;59.418;17.962;2023-02-13T11:28:03;102261.47;;;4.69;72.05
70833;BME280;58452;59.418;17.962;2023-02-13T11:30:34;102268.81;;;4.76;71.93
70833;BME280;58452;59.418;17.962;2023-02-13T11:33:26;102268.53;;;4.82;71.06
70833;BME280;58452;59.418;17.962;2023-02-13T11:36:07;102267.78;;;4.80;70.67
70833;BME280;58452;59.418;17.962;2023-02-13T11:38:32;102276.94;;;4.84;71.20
70833;BME280;58452;59.418;17.962;2023-02-13T11:41:11;102279.31;;;4.89;70.03
70833;BME280;58452;59.418;17.962;2023-02-13T11:43:47;102275.19;;;4.86;70.64
70833;BME280;58452;59.418;17.962;2023-02-13T11:46:23;102276.84;;;4.87;69.94
70833;BME280;58452;59.418;17.962;2023-02-13T11:49:02;102280.00;;;4.92;71.09
70833;BME280;58452;59.418;17.962;2023-02-13T11:51:40;102290.09;;;4.96;69.73
70833;BME280;58452;59.418;17.962;2023-02-13T11:56:51;102295.22;;;4.96;70.01
70833;BME280;58452;59.418;17.962;2023-02-13T11:59:16;102294.19;;;5.00;69.90
70833;BME280;58452;59.418;17.962;2023-02-13T12:01:42;102294.88;;;5.03;69.36
70833;BME280;58452;59.418;17.962;2023-02-13T12:04:17;102304.91;;;5.08;69.83
70833;BME280;58452;59.418;17.962;2023-02-13T12:07:03;102306.44;;;5.12;69.31
70833;BME280;58452;59.418;17.962;2023-02-13T12:09:38;102307.97;;;5.16;69.03
70833;BME280;58452;59.418;17.962;2023-02-13T12:12:04;102305.63;;;5.11;69.40
70833;BME280;58452;59.418;17.962;2023-02-13T12:14:37;102311.44;;;5.15;69.40
70833;BME280;58452;59.418;17.962;2023-02-13T12:19:38;102304.25;;;5.23;68.49
70833;BME280;58452;59.418;17.962;2023-02-13T12:31:39;102307.00;;;5.37;68.40
70833;BME280;58452;59.418;17.962;2023-02-13T12:36:40;102328.88;;;5.44;68.02
70833;BME280;58452;59.418;17.962;2023-02-13T12:39:37;102335.50;;;5.48;68.16
70833;BME280;58452;59.418;17.962;2023-02-13T12:45:19;102337.25;;;5.48;67.16
70833;BME280;58452;59.418;17.962;2023-02-13T12:48:09;102337.19;;;5.49;67.03
70833;BME280;58452;59.418;17.962;2023-02-13T12:50:43;102338.97;;;5.47;66.88
70833;BME280;58452;59.418;17.962;2023-02-13T12:58:35;102338.34;;;5.61;66.35
70833;BME280;58452;59.418;17.962;2023-02-13T13:07:06;102349.34;;;5.63;66.88
70833;BME280;58452;59.418;17.962;2023-02-13T13:15:32;102357.13;;;5.61;67.45
70833;BME280;58452;59.418;17.962;2023-02-13T13:23:26;102351.84;;;5.64;67.18
70833;BME280;58452;59.418;17.962;2023-02-13T13:28:26;102357.03;;;5.63;67.22
70833;BME280;58452;59.418;17.962;2023-02-13T13:30:54;102355.94;;;5.68;67.39
70833;BME280;58452;59.418;17.962;2023-02-13T13:33:24;102362.84;;;5.66;67.01
70833;BME280;58452;59.418;17.962;2023-02-13T13:35:57;102362.78;;;5.68;67.04
70833;BME280;58452;59.418;17.962;2023-02-13T13:38:32;102373.38;;;5.60;67.29
70833;BME280;58452;59.418;17.962;2023-02-13T13:46:57;102372.34;;;5.64;67.64
70833;BME280;58452;59.418;17.962;2023-02-13T13:51:49;102373.97;;;5.65;67.34
70833;BME280;58452;59.418;17.962;2023-02-13T14:05:01;102371.22;;;5.70;67.67
70833;BME280;58452;59.418;17.962;2023-02-13T14:07:35;102378.00;;;5.71;67.87
70833;BME280;58452;59.418;17.962;2023-02-13T14:10:02;102389.16;;;5.70;67.75
70833;BME280;58452;59.418;17.962;2023-02-13T14:14:57;102381.25;;;5.74;67.22
70833;BME280;58452;59.418;17.962;2023-02-13T14:20:20;102382.16;;;5.73;67.82
70833;BME280;58452;59.418;17.962;2023-02-13T14:22:47;102383.97;;;5.71;67.72
70833;BME280;58452;59.418;17.962;2023-02-13T14:25:39;102387.38;;;5.72;67.94
70833;BME280;58452;59.418;17.962;2023-02-13T14:28:05;102381.47;;;5.70;67.54
70833;BME280;58452;59.418;17.962;2023-02-13T14:30:33;102385.75;;;5.69;67.45
70833;BME280;58452;59.418;17.962;2023-02-13T14:33:02;102384.91;;;5.69;67.89
70833;BME280;58452;59.418;17.962;2023-02-13T14:35:35;102382.44;;;5.67;67.99
70833;BME280;58452;59.418;17.962;2023-02-13T14:38:04;102379.69;;;5.72;68.08
70833;BME280;58452;59.418;17.962;2023-02-13T14:40:47;102386.19;;;5.60;68.50
70833;BME280;58452;59.418;17.962;2023-02-13T14:45:55;102376.09;;;5.57;68.54
70833;BME280;58452;59.418;17.962;2023-02-13T14:48:30;102377.03;;;5.55;68.19
70833;BME280;58452;59.418;17.962;2023-02-13T14:50:58;102384.94;;;5.50;68.44
70833;BME280;58452;59.418;17.962;2023-02-13T14:53:30;102383.31;;;5.48;68.79
70833;BME280;58452;59.418;17.962;2023-02-13T14:56:10;102388.53;;;5.46;68.58
70833;BME280;58452;59.418;17.962;2023-02-13T14:59:05;102393.91;;;5.40;68.62
70833;BME280;58452;59.418;17.962;2023-02-13T15:01:33;102397.25;;;5.42;68.69
70833;BME280;58452;59.418;17.962;2023-02-13T15:06:47;102400.75;;;5.39;68.95
70833;BME280;58452;59.418;17.962;2023-02-13T15:11:52;102393.81;;;5.23;69.33
70833;BME280;58452;59.418;17.962;2023-02-13T15:14:30;102397.50;;;5.17;69.81
70833;BME280;58452;59.418;17.962;2023-02-13T15:16:58;102398.31;;;5.18;70.01
70833;BME280;58452;59.418;17.962;2023-02-13T15:19:25;102394.28;;;5.12;70.02
70833;BME280;58452;59.418;17.962;2023-02-13T15:22:03;102403.00;;;5.08;70.54
70833;BME280;58452;59.418;17.962;2023-02-13T15:24:37;102402.16;;;5.08;70.27
70833;BME280;58452;59.418;17.962;2023-02-13T15:27:17;102406.56;;;5.04;70.45
70833;BME280;58452;59.418;17.962;2023-02-13T15:30:00;102404.47;;;4.93;70.35
70833;BME280;58452;59.418;17.962;2023-02-13T15:32:31;102408.00;;;4.91;71.31
70833;BME280;58452;59.418;17.962;2023-02-13T15:34:57;102404.03;;;4.84;71.61
70833;BME280;58452;59.418;17.962;2023-02-13T15:37:26;102408.44;;;4.80;71.55